Rechercher aéroport 
image banner adimage banner adimage banner ad
image banner ad

7CA2 - Paradise Lakes

Situé à Bakersfield, United States

ICAO - 7CA2, IATA -

Données fournies par Airmate  

Information générale

Coordonnées: N35°10'36" W118°55'38"
Élévation : 340 feet MSL.
Variation magnétique : 14° East
Voir autres Aéroports à California

Données opérationnelles

Special qualification required
Heure actuelle UTC:
Heure actuelle locale:
Météo à : KBFL - Meadows Field ( 31 km )
METAR: KBFL 262254Z 01009KT 7SM SCT075 SCT095 28/13 A2988 RMK AO2 SLP112 T02830133
TAF: KBFL 261720Z 2618/2718 VRB03KT P6SM BKN150 FM262000 30008KT P6SM SCT100 BKN150 FM271000 VRB04KT P6SM SCT200
Voir NOTAMs / SUP AIP / TFR affectant cet aéroport [VIEW]
Fréquences de communication: [VIEW]

Pistes:

Identifiant RWYQFULongueur (ft)Largeur (ft)SurfaceLDA (ft)
16270060ASPH
34270060ASPH

Coordonnées de l'aéroport

Adresse: Bakersfield United States

Vue satellite de 7CA2